Time;durP1;ratioP1;P1;durP2;ratioP2;P2;SDS_P1;SDS_P2;PMS_P1;PMS_P2;Temp;Humidity;BMP_temperature;BMP_pressure;BME280_temperature;BME280_humidity;BME280_pressure;Samples;Min_cycle;Max_cycle;Signal;HPM_P1;HPM_P2
2022/09/23 00:00:40;;;;;;;5.60;5.13;;;;;;;10.40;59.15;95119.19;4983622;28;20271;-69
2022/09/23 00:03:05;;;;;;;6.20;5.70;;;;;;;10.39;58.88;95121.00;4986295;28;20218;-68
2022/09/23 00:05:31;;;;;;;5.80;5.30;;;;;;;10.41;59.01;95121.69;5010931;28;20216;-68
2022/09/23 00:07:57;;;;;;;5.78;5.38;;;;;;;10.34;59.01;95115.34;4986146;28;20223;-69
2022/09/23 00:10:25;;;;;;;5.40;5.00;;;;;;;10.39;59.14;95121.00;4987241;28;20641;-66
2022/09/23 00:12:52;;;;;;;5.30;4.90;;;;;;;10.40;58.89;95112.16;4983491;28;20227;-68
2022/09/23 00:15:17;;;;;;;5.50;5.10;;;;;;;10.36;58.85;95114.25;4985933;28;20231;-68
2022/09/23 00:17:43;;;;;;;5.95;5.43;;;;;;;10.42;58.87;95112.00;4986628;28;20215;-68
2022/09/23 00:20:09;;;;;;;5.97;5.57;;;;;;;10.23;59.38;95097.13;4985357;28;20219;-68
2022/09/23 00:22:36;;;;;;;5.25;4.85;;;;;;;10.33;59.34;95117.16;4986318;28;20231;-69
2022/09/23 00:25:06;;;;;;;6.22;5.72;;;;;;;10.21;59.76;95109.59;4981229;28;20239;-68
2022/09/23 00:27:32;;;;;;;6.10;5.53;;;;;;;10.26;59.27;95116.06;4984187;28;20220;-68
2022/09/23 00:29:58;;;;;;;6.25;5.75;;;;;;;10.22;59.53;95111.28;4986359;28;20214;-68
2022/09/23 00:32:24;;;;;;;6.18;5.68;;;;;;;10.12;59.73;95112.13;4982702;28;20262;-67
2022/09/23 00:35:40;;;;;;;5.85;5.38;;;;;;;10.07;60.15;95113.53;4987327;28;20306;-67
2022/09/23 00:38:32;;;;;;;5.75;5.35;;;;;;;10.00;60.57;95117.75;4987894;28;20235;-67
2022/09/23 00:40:58;;;;;;;7.45;6.88;;;;;;;9.95;60.39;95110.31;4980729;28;20223;-69
2022/09/23 00:43:39;;;;;;;9.18;8.43;;;;;;;9.88;60.23;95110.03;4984373;28;20238;-69
2022/09/23 00:46:08;;;;;;;9.40;8.52;;;;;;;9.83;60.13;95108.81;4986027;28;20227;-68
2022/09/23 00:48:36;;;;;;;9.60;8.80;;;;;;;9.76;59.93;95105.97;4989156;28;20762;-68
2022/09/23 00:51:01;;;;;;;9.65;8.77;;;;;;;9.68;60.47;95106.69;4987028;28;20215;-68
2022/09/23 00:53:27;;;;;;;10.68;9.77;;;;;;;9.41;61.01;95120.59;4989870;28;20200;-69
2022/09/23 00:55:56;;;;;;;10.55;9.20;;;;;;;9.42;61.12;95111.72;4987685;28;20306;-69
2022/09/23 00:58:30;;;;;;;10.57;9.48;;;;;;;9.54;60.85;95117.63;4982294;28;20220;-68
2022/09/23 01:00:58;;;;;;;10.23;9.23;;;;;;;9.31;61.30;95118.94;5012735;28;20314;-67
2022/09/23 01:03:24;;;;;;;11.18;8.88;;;;;;;9.37;61.30;95121.00;4987332;28;20227;-68
2022/09/23 01:05:51;;;;;;;10.57;9.68;;;;;;;9.34;61.39;95132.59;4988602;28;20211;-67
2022/09/23 01:08:18;;;;;;;10.27;9.38;;;;;;;9.41;61.12;95122.34;4989470;28;20899;-68
2022/09/23 01:11:01;;;;;;;10.57;9.57;;;;;;;9.43;60.86;95120.41;4988259;28;20246;-68
2022/09/23 01:13:40;;;;;;;10.68;9.63;;;;;;;9.26;61.40;95122.81;4984828;28;20231;-68
2022/09/23 01:16:08;;;;;;;10.40;9.45;;;;;;;9.29;61.45;95124.31;4987122;28;20868;-69
2022/09/23 01:18:46;;;;;;;10.15;9.25;;;;;;;9.15;61.64;95117.72;4986947;28;20232;-68
2022/09/23 01:21:20;;;;;;;11.43;10.43;;;;;;;9.07;61.98;95116.78;4976932;28;20225;-67
2022/09/23 01:23:51;;;;;;;10.40;9.40;;;;;;;9.08;62.04;95121.88;4985939;28;20203;-67
2022/09/23 01:27:05;;;;;;;10.43;9.52;;;;;;;9.01;61.98;95120.78;4985331;28;20311;-68
2022/09/23 01:29:32;;;;;;;10.10;9.20;;;;;;;9.02;62.09;95122.44;4958553;28;20256;-68
2022/09/23 01:31:59;;;;;;;10.18;9.30;;;;;;;8.85;62.65;95126.59;4972651;28;20232;-68
2022/09/23 01:34:48;;;;;;;10.27;9.30;;;;;;;8.79;62.71;95116.63;4958032;28;20228;-68
2022/09/23 01:37:30;;;;;;;11.18;9.32;;;;;;;8.65;63.11;95120.50;4976080;28;20220;-68
2022/09/23 01:40:09;;;;;;;9.98;9.05;;;;;;;8.67;63.26;95126.44;4969932;28;20706;-67
2022/09/23 01:42:34;;;;;;;10.20;9.38;;;;;;;8.68;63.44;95130.72;4974951;28;20223;-67
2022/09/23 01:45:22;;;;;;;11.10;10.10;;;;;;;8.81;62.92;95127.81;4975214;28;20659;-68
2022/09/23 01:48:01;;;;;;;11.02;10.00;;;;;;;8.72;63.23;95131.28;4876012;29;20214;-68
2022/09/23 01:53:26;;;;;;;10.00;9.20;;;;;;;8.80;62.52;95134.88;4879052;29;20740;-68
2022/09/23 01:55:56;;;;;;;10.23;9.18;;;;;;;8.81;62.74;95131.25;4874506;29;20261;-68
2022/09/23 01:58:48;;;;;;;10.23;9.33;;;;;;;8.76;63.25;95130.84;4874447;29;20710;-68
2022/09/23 02:01:23;;;;;;;10.23;9.25;;;;;;;8.79;63.31;95124.50;4872557;29;20247;-68
2022/09/23 02:04:17;;;;;;;10.43;9.40;;;;;;;8.63;63.78;95127.66;4904927;29;20292;-68
2022/09/23 02:06:54;;;;;;;8.93;8.10;;;;;;;8.65;63.99;95125.75;4929585;29;20680;-67
2022/09/23 02:09:28;;;;;;;8.67;7.83;;;;;;;8.72;63.78;95124.25;4889623;29;20245;-68
2022/09/23 02:12:04;;;;;;;7.72;7.03;;;;;;;8.74;64.61;95127.56;4914590;29;20217;-68
2022/09/23 02:14:58;;;;;;;7.90;7.25;;;;;;;8.99;64.31;95127.97;4932590;29;20233;-68
2022/09/23 02:17:35;;;;;;;8.30;7.60;;;;;;;9.01;64.15;95131.28;4937148;29;20245;-68
2022/09/23 02:20:04;;;;;;;7.80;7.13;;;;;;;9.04;64.10;95126.56;4932022;29;20220;-67
2022/09/23 02:23:00;;;;;;;7.93;7.23;;;;;;;9.00;64.69;95125.19;4931298;28;20891;-67
2022/09/23 02:25:32;;;;;;;7.77;7.17;;;;;;;8.89;65.20;95120.09;4958157;28;20586;-67
2022/09/23 02:28:27;;;;;;;8.40;7.60;;;;;;;8.84;65.44;95110.00;4979541;28;20775;-67
2022/09/23 02:31:06;;;;;;;7.53;6.82;;;;;;;8.96;65.17;95112.50;4947151;28;20647;-67
2022/09/23 02:34:20;;;;;;;7.90;7.20;;;;;;;9.10;64.92;95124.38;4962544;28;20255;-68
2022/09/23 02:37:14;;;;;;;7.30;6.70;;;;;;;9.05;64.79;95116.91;4960421;28;20577;-67
2022/09/23 02:39:56;;;;;;;6.93;6.43;;;;;;;8.99;64.89;95105.19;4941906;28;20311;-68
2022/09/23 02:42:30;;;;;;;8.18;7.47;;;;;;;8.92;65.20;95121.59;4943396;28;20991;-67
2022/09/23 02:44:55;;;;;;;7.85;7.25;;;;;;;9.12;64.45;95118.00;4942876;28;20224;-68
2022/09/23 02:47:27;;;;;;;7.67;7.07;;;;;;;9.00;65.15;95127.81;4950551;28;20224;-68
2022/09/23 02:49:55;;;;;;;7.40;6.65;;;;;;;8.96;65.45;95130.88;4945183;28;20236;-68
2022/09/23 02:52:20;;;;;;;7.20;6.60;;;;;;;8.97;65.10;95129.88;4945084;28;20582;-68
2022/09/23 02:54:46;;;;;;;7.27;6.67;;;;;;;9.01;65.06;95131.28;4952461;28;20703;-68
2022/09/23 02:57:13;;;;;;;7.43;6.82;;;;;;;8.88;65.25;95135.97;4963803;28;20211;-67
2022/09/23 02:59:39;;;;;;;8.88;8.13;;;;;;;8.92;64.95;95137.34;4950083;28;20215;-68
2022/09/23 03:02:07;;;;;;;10.53;9.43;;;;;;;8.73;64.66;95136.38;4947140;28;20224;-67
2022/09/23 03:04:57;;;;;;;11.70;10.50;;;;;;;8.73;64.79;95138.16;4949703;28;20231;-67
2022/09/23 03:07:31;;;;;;;11.87;10.77;;;;;;;8.64;64.37;95147.69;4950699;28;20219;-67
2022/09/23 03:10:11;;;;;;;12.68;11.48;;;;;;;8.61;64.18;95140.09;4986470;28;20246;-67
2022/09/23 03:12:58;;;;;;;13.23;11.90;;;;;;;8.60;64.19;95141.06;4983328;28;20235;-67
2022/09/23 03:15:34;;;;;;;12.63;11.43;;;;;;;8.61;64.03;95140.09;4980057;28;20239;-67
2022/09/23 03:18:35;;;;;;;13.40;12.10;;;;;;;8.58;63.85;95137.72;4977084;28;20266;-67
2022/09/23 03:21:06;;;;;;;12.67;11.50;;;;;;;8.36;64.31;95134.38;4983179;28;20293;-67
2022/09/23 03:23:35;;;;;;;13.43;12.03;;;;;;;8.19;64.99;95132.41;4984045;28;20203;-67
2022/09/23 03:26:07;;;;;;;12.90;11.60;;;;;;;8.25;64.96;95129.25;4987275;28;20301;-67
2022/09/23 03:28:37;;;;;;;12.70;11.63;;;;;;;8.21;65.06;95132.28;4970943;28;20606;-66
2022/09/23 03:31:03;;;;;;;12.20;10.90;;;;;;;8.17;65.31;95129.09;4986086;28;20547;-67
2022/09/23 03:33:30;;;;;;;14.97;12.47;;;;;;;8.32;64.88;95134.78;4981108;28;20223;-67
2022/09/23 03:38:52;;;;;;;13.80;12.07;;;;;;;8.09;65.37;95139.41;4982529;28;20246;-68
2022/09/23 03:41:28;;;;;;;13.53;12.17;;;;;;;7.97;65.48;95135.25;4982691;28;20589;-67
2022/09/23 03:43:57;;;;;;;13.33;12.13;;;;;;;7.64;66.59;95135.38;4986182;28;21338;-69
2022/09/23 03:46:28;;;;;;;12.93;11.70;;;;;;;7.64;67.02;95131.94;4983735;28;20228;-68
2022/09/23 03:49:14;;;;;;;14.90;13.30;;;;;;;7.84;66.20;95128.44;4980795;28;20219;-68
2022/09/23 03:51:39;;;;;;;14.37;12.17;;;;;;;7.80;65.95;95140.13;4979256;28;20369;-68
2022/09/23 03:54:05;;;;;;;13.40;12.07;;;;;;;7.82;66.25;95135.59;4981099;28;20298;-67
2022/09/23 03:56:30;;;;;;;13.23;11.80;;;;;;;7.83;65.87;95145.13;4987110;28;20215;-67
2022/09/23 03:58:56;;;;;;;17.17;12.00;;;;;;;7.86;65.68;95149.28;4980600;28;20624;-67
2022/09/23 04:01:22;;;;;;;14.07;12.77;;;;;;;7.97;65.27;95146.56;4978995;28;20243;-68
2022/09/23 04:03:47;;;;;;;13.10;10.97;;;;;;;7.93;65.36;95150.38;4983705;28;20220;-67
2022/09/23 04:06:13;;;;;;;12.07;10.73;;;;;;;7.92;65.37;95146.94;4990436;28;20230;-68
2022/09/23 04:08:39;;;;;;;12.23;10.90;;;;;;;7.89;65.21;95156.84;4988312;28;20218;-68
2022/09/23 04:11:04;;;;;;;11.70;10.50;;;;;;;7.81;65.63;95156.69;4983005;28;20223;-70
2022/09/23 04:13:30;;;;;;;10.80;9.23;;;;;;;7.74;65.66;95151.13;4989460;28;20223;-70
2022/09/23 04:15:56;;;;;;;10.07;9.07;;;;;;;7.68;65.81;95154.28;4987316;28;20249;-70
2022/09/23 04:18:21;;;;;;;10.73;9.23;;;;;;;7.61;66.23;95155.75;4983821;28;20343;-70
2022/09/23 04:20:47;;;;;;;9.70;8.70;;;;;;;7.75;65.40;95163.25;4988890;28;20208;-70
2022/09/23 04:23:12;;;;;;;11.70;8.90;;;;;;;7.73;65.40;95163.41;4991197;28;20735;-70
2022/09/23 04:25:48;;;;;;;9.57;7.93;;;;;;;7.66;65.57;95166.66;4980120;28;20230;-71
2022/09/23 04:28:14;;;;;;;9.43;7.60;;;;;;;7.48;65.79;95169.91;4990087;28;20228;-70
2022/09/23 04:30:41;;;;;;;8.43;7.63;;;;;;;7.38;66.22;95182.09;4986962;28;20216;-70
2022/09/23 04:33:06;;;;;;;8.87;8.03;;;;;;;7.34;66.37;95170.19;4986133;28;20203;-70
2022/09/23 04:35:32;;;;;;;9.60;8.57;;;;;;;7.47;66.06;95173.44;4988596;28;20290;-70
2022/09/23 04:37:57;;;;;;;9.60;7.53;;;;;;;7.35;66.49;95177.09;4990819;28;20318;-70
2022/09/23 04:40:23;;;;;;;9.70;7.87;;;;;;;7.42;66.44;95187.88;4990701;28;20245;-70
2022/09/23 04:42:49;;;;;;;8.83;7.23;;;;;;;7.38;66.58;95184.69;4992270;28;20227;-70
2022/09/23 04:45:14;;;;;;;9.07;7.63;;;;;;;7.38;66.23;95187.31;4988280;28;20762;-70
2022/09/23 04:47:40;;;;;;;10.23;7.90;;;;;;;7.46;66.25;95184.06;4982614;28;20208;-69
2022/09/23 04:50:06;;;;;;;10.90;8.23;;;;;;;7.80;65.49;95192.50;4989524;28;20368;-69
2022/09/23 04:52:31;;;;;;;11.13;8.43;;;;;;;7.53;66.05;95200.06;4977412;28;20362;-70
2022/09/23 04:54:57;;;;;;;10.07;8.23;;;;;;;7.60;66.24;95201.22;4980961;28;20301;-72
2022/09/23 04:57:23;;;;;;;10.13;7.93;;;;;;;7.83;65.27;95197.47;4986178;28;20577;-71
2022/09/23 04:59:49;;;;;;;9.13;8.20;;;;;;;7.83;64.96;95194.88;4984892;28;20195;-72
2022/09/23 05:02:15;;;;;;;19.83;9.00;;;;;;;7.94;64.99;95193.94;4986321;28;20227;-71
2022/09/23 05:04:40;;;;;;;11.23;8.47;;;;;;;7.94;64.73;95189.53;4983324;28;20239;-71
2022/09/23 05:07:06;;;;;;;9.43;8.53;;;;;;;7.94;65.15;95199.19;4983836;28;20207;-71
2022/09/23 05:09:31;;;;;;;12.33;8.77;;;;;;;8.10;64.97;95194.28;4984614;28;20223;-72
2022/09/23 05:11:57;;;;;;;11.40;9.03;;;;;;;8.17;64.88;95199.81;4978782;28;20203;-72
2022/09/23 05:14:22;;;;;;;10.95;9.95;;;;;;;8.33;65.15;95204.56;4987034;28;20212;-71
2022/09/23 05:16:48;;;;;;;11.17;10.07;;;;;;;8.45;65.20;95197.47;4982220;28;20262;-71
2022/09/23 05:19:14;;;;;;;11.50;10.50;;;;;;;8.54;65.50;95202.72;4985212;28;20223;-71
2022/09/23 05:21:42;;;;;;;11.63;10.63;;;;;;;8.65;65.16;95203.56;4983394;28;20226;-70
2022/09/23 05:24:09;;;;;;;12.65;11.65;;;;;;;8.84;64.72;95199.16;4981525;28;20820;-72
2022/09/23 05:26:34;;;;;;;14.35;13.05;;;;;;;8.83;64.66;95200.13;4986910;28;20240;-71
2022/09/23 05:28:59;;;;;;;14.05;12.75;;;;;;;8.93;63.88;95208.03;4981562;28;20285;-71
2022/09/23 05:31:27;;;;;;;12.83;11.77;;;;;;;8.74;64.61;95202.75;4988029;28;20233;-72
2022/09/23 05:33:57;;;;;;;13.02;11.82;;;;;;;8.72;64.40;95210.75;4984759;28;20351;-71
2022/09/23 05:36:23;;;;;;;12.00;10.98;;;;;;;8.54;64.77;95207.94;4984257;28;20227;-70
2022/09/23 05:38:50;;;;;;;10.50;9.70;;;;;;;8.52;64.87;95209.88;4986321;28;20290;-72
2022/09/23 05:41:17;;;;;;;9.37;8.57;;;;;;;8.66;64.49;95199.97;4981662;28;20235;-70
2022/09/23 05:43:43;;;;;;;10.03;9.13;;;;;;;8.61;64.60;95203.00;4998354;28;20235;-72
2022/09/23 05:46:13;;;;;;;8.60;7.80;;;;;;;8.79;64.09;95209.25;4987005;28;20220;-68
2022/09/23 05:48:39;;;;;;;8.93;8.13;;;;;;;8.82;63.55;95205.50;4987851;28;20219;-69
2022/09/23 05:51:09;;;;;;;7.82;7.10;;;;;;;8.83;63.16;95197.53;4980971;28;20824;-69
2022/09/23 05:53:35;;;;;;;8.23;6.77;;;;;;;8.93;62.52;95199.34;4987644;28;20212;-68
2022/09/23 05:56:01;;;;;;;7.75;7.15;;;;;;;9.14;62.22;95200.03;4983682;28;20282;-68
2022/09/23 05:58:27;;;;;;;7.97;7.38;;;;;;;9.21;61.47;95195.88;4986054;28;20233;-69
2022/09/23 06:00:55;;;;;;;6.85;6.35;;;;;;;9.28;61.43;95199.59;4981608;28;20230;-70
2022/09/23 06:03:22;;;;;;;7.03;6.45;;;;;;;9.37;61.05;95195.31;4982643;28;20228;-72
2022/09/23 06:05:50;;;;;;;6.88;6.20;;;;;;;9.37;60.78;95186.59;4988862;28;20212;-71
2022/09/23 06:08:16;;;;;;;6.80;6.10;;;;;;;9.54;60.41;95193.75;4992004;28;20286;-71
2022/09/23 06:10:44;;;;;;;7.22;6.45;;;;;;;9.62;60.18;95200.91;4987943;28;20227;-71
2022/09/23 06:13:10;;;;;;;6.43;5.93;;;;;;;9.57;60.22;95190.88;4986912;28;20232;-69
2022/09/23 06:15:36;;;;;;;6.22;5.63;;;;;;;9.65;59.80;95198.00;4987915;28;20231;-66
2022/09/23 06:18:02;;;;;;;6.57;5.97;;;;;;;9.74;59.87;95185.84;4983166;28;20208;-69
2022/09/23 06:20:28;;;;;;;6.97;6.30;;;;;;;9.71;59.27;95190.41;4987568;28;20286;-66
2022/09/23 06:22:55;;;;;;;6.40;5.90;;;;;;;9.80;59.22;95198.41;4987451;28;20251;-68
2022/09/23 06:25:21;;;;;;;7.00;6.40;;;;;;;9.86;58.80;95188.16;4985780;28;20232;-69
2022/09/23 06:27:55;;;;;;;6.68;6.07;;;;;;;9.88;58.38;95186.22;4986822;28;20232;-69
2022/09/23 06:30:23;;;;;;;6.00;5.18;;;;;;;9.93;58.16;95188.41;4983758;28;20216;-69
2022/09/23 06:32:50;;;;;;;5.47;5.07;;;;;;;9.93;57.96;95194.47;4995861;28;20215;-70
2022/09/23 06:35:20;;;;;;;6.15;5.63;;;;;;;9.91;58.02;95187.72;4983361;28;20314;-71
2022/09/23 06:37:45;;;;;;;5.93;5.53;;;;;;;9.91;58.50;95198.22;4983965;28;20219;-70
2022/09/23 06:40:13;;;;;;;5.90;5.40;;;;;;;9.98;58.24;95194.06;4980156;28;20308;-69
2022/09/23 06:42:41;;;;;;;5.82;5.32;;;;;;;10.08;58.05;95192.22;4982732;28;20295;-72
2022/09/23 06:45:11;;;;;;;6.07;5.45;;;;;;;10.14;57.66;95189.03;4983158;28;20212;-68
2022/09/23 06:47:37;;;;;;;6.22;5.63;;;;;;;10.08;57.67;95179.09;4988360;28;20257;-70
2022/09/23 06:50:04;;;;;;;5.70;5.20;;;;;;;10.04;57.92;95196.09;4981817;28;20578;-70
2022/09/23 06:52:29;;;;;;;6.80;5.90;;;;;;;9.99;58.68;95194.88;4984351;28;20230;-72
2022/09/23 06:54:55;;;;;;;6.80;6.20;;;;;;;10.06;58.28;95209.94;4986282;28;20216;-72
2022/09/23 06:57:21;;;;;;;5.63;5.22;;;;;;;10.13;57.66;95212.78;4987901;28;20251;-72
2022/09/23 06:59:46;;;;;;;5.93;5.47;;;;;;;10.11;57.74;95201.63;4987681;28;20203;-72
2022/09/23 07:02:12;;;;;;;6.15;5.60;;;;;;;10.33;57.08;95197.81;4985949;28;20251;-71
2022/09/23 07:04:38;;;;;;;5.90;5.40;;;;;;;10.28;57.05;95205.31;4986263;28;20632;-72
2022/09/23 07:07:04;;;;;;;6.18;5.68;;;;;;;10.25;57.12;95219.53;4986357;28;20223;-69
2022/09/23 07:09:29;;;;;;;6.00;5.50;;;;;;;10.12;57.56;95211.97;4986139;28;20896;-73
2022/09/23 07:11:55;;;;;;;6.03;5.50;;;;;;;10.04;58.04;95218.94;4988981;28;20226;-69
2022/09/23 07:14:20;;;;;;;8.02;6.20;;;;;;;10.12;58.05;95221.66;4984367;28;20224;-72
2022/09/23 07:16:49;;;;;;;6.63;6.03;;;;;;;10.34;57.77;95223.97;4980714;28;20243;-73
2022/09/23 07:19:15;;;;;;;6.65;6.05;;;;;;;10.54;57.30;95210.72;5009465;28;20228;-72
2022/09/23 07:21:41;;;;;;;6.25;5.75;;;;;;;10.59;56.69;95219.00;4985245;28;20223;-73
2022/09/23 07:24:06;;;;;;;5.72;5.22;;;;;;;10.56;56.49;95220.13;4980575;28;20303;-70
2022/09/23 07:26:32;;;;;;;5.30;4.90;;;;;;;10.59;56.83;95217.19;4985616;28;20226;-71
2022/09/23 07:29:03;;;;;;;5.90;5.50;;;;;;;10.64;57.03;95223.81;4983154;28;20231;-69
2022/09/23 07:31:34;;;;;;;6.07;5.47;;;;;;;10.73;56.10;95215.03;4977665;28;20652;-70
2022/09/23 07:34:00;;;;;;;4.97;4.60;;;;;;;10.64;56.36;95232.53;4985461;28;20211;-70
2022/09/23 07:36:27;;;;;;;5.78;5.20;;;;;;;10.78;55.96;95229.41;4985140;28;20224;-70
2022/09/23 07:39:01;;;;;;;6.30;5.80;;;;;;;10.84;56.02;95232.44;4984276;28;20258;-71
2022/09/23 07:41:27;;;;;;;5.50;5.10;;;;;;;10.84;56.12;95233.25;4980398;28;20310;-73
2022/09/23 07:43:56;;;;;;;8.25;7.55;;;;;;;10.96;55.97;95233.84;4983692;28;20212;-69
2022/09/23 07:46:21;;;;;;;5.32;4.82;;;;;;;11.07;55.22;95240.72;4984277;28;20242;-69
2022/09/23 07:48:47;;;;;;;5.75;5.25;;;;;;;11.03;54.93;95238.38;4977647;28;20227;-72
2022/09/23 07:51:17;;;;;;;5.75;5.25;;;;;;;11.04;55.25;95232.16;4982764;28;20211;-73
2022/09/23 07:53:47;;;;;;;6.35;5.15;;;;;;;11.17;55.01;95238.84;4985112;28;20212;-74
2022/09/23 07:56:12;;;;;;;6.25;5.75;;;;;;;11.25;55.16;95244.16;4984770;28;20219;-72
2022/09/23 07:58:38;;;;;;;6.28;5.72;;;;;;;11.12;55.12;95226.16;4979401;28;20228;-71
2022/09/23 08:01:06;;;;;;;5.88;5.30;;;;;;;11.31;54.97;95230.44;4985908;28;20220;-69
2022/09/23 08:03:31;;;;;;;5.00;4.60;;;;;;;11.31;54.81;95237.50;4987794;28;20897;-74
2022/09/23 08:06:09;;;;;;;5.25;4.75;;;;;;;11.56;54.12;95244.63;4985258;28;20215;-69
2022/09/23 08:08:39;;;;;;;5.57;5.18;;;;;;;11.61;53.93;95252.06;4981929;28;20219;-69
2022/09/23 08:11:07;;;;;;;5.38;4.97;;;;;;;11.54;53.73;95251.03;4983850;28;20223;-68
2022/09/23 08:13:33;;;;;;;5.05;4.47;;;;;;;11.53;53.73;95244.94;4982744;28;20226;-69
2022/09/23 08:15:58;;;;;;;5.57;5.07;;;;;;;11.54;53.34;95245.75;4982864;28;20235;-70
2022/09/23 08:18:24;;;;;;;6.43;4.72;;;;;;;11.57;53.29;95235.72;4984479;28;20318;-70
2022/09/23 08:20:51;;;;;;;5.20;4.80;;;;;;;11.51;53.23;95236.34;4982884;28;20230;-70
2022/09/23 08:23:17;;;;;;;4.85;4.45;;;;;;;11.60;53.68;95229.34;4979866;28;20232;-70
2022/09/23 08:25:46;;;;;;;3.63;3.33;;;;;;;11.70;51.59;95230.91;4978985;28;20874;-70
2022/09/23 08:28:17;;;;;;;3.88;3.30;;;;;;;11.76;51.36;95224.22;4983045;28;20219;-71
2022/09/23 08:30:46;;;;;;;4.07;3.78;;;;;;;11.85;51.33;95225.09;5009641;28;20254;-70
2022/09/23 08:33:12;;;;;;;4.10;3.80;;;;;;;11.72;51.74;95222.84;4982807;28;21287;-69
2022/09/23 08:35:38;;;;;;;5.07;3.40;;;;;;;11.78;51.43;95231.94;4979727;28;20686;-70
2022/09/23 08:38:03;;;;;;;4.43;4.13;;;;;;;11.87;51.21;95224.00;4981832;28;20234;-68
2022/09/23 08:40:31;;;;;;;4.60;4.22;;;;;;;12.04;51.31;95218.81;4982874;28;20319;-71
2022/09/23 08:42:58;;;;;;;5.13;4.68;;;;;;;12.17;51.22;95221.03;4984858;28;20228;-68
2022/09/23 08:45:26;;;;;;;4.50;4.20;;;;;;;12.16;51.07;95224.63;4985610;28;20220;-71
2022/09/23 08:48:07;;;;;;;5.40;4.10;;;;;;;12.13;50.59;95220.50;4984581;28;20212;-72
2022/09/23 08:50:42;;;;;;;4.57;4.18;;;;;;;12.23;50.48;95215.94;4995559;28;20232;-71
2022/09/23 08:53:23;;;;;;;4.05;3.65;;;;;;;12.24;49.76;95215.00;4982984;28;20228;-72
2022/09/23 08:55:52;;;;;;;4.03;3.60;;;;;;;12.37;49.62;95211.88;4998194;28;20339;-69
2022/09/23 08:58:42;;;;;;;3.78;3.47;;;;;;;12.45;49.45;95221.66;4985279;28;20230;-69
2022/09/23 09:01:32;;;;;;;4.72;4.32;;;;;;;12.53;49.58;95221.69;4982197;28;20224;-70
2022/09/23 09:04:00;;;;;;;3.75;3.35;;;;;;;12.65;49.20;95211.69;4984162;28;20374;-71
2022/09/23 09:06:39;;;;;;;3.85;3.50;;;;;;;12.78;48.63;95220.81;4987500;28;20246;-70
2022/09/23 09:09:17;;;;;;;3.58;3.28;;;;;;;12.80;47.49;95207.44;4984249;28;20258;-69
2022/09/23 09:11:47;;;;;;;3.33;3.03;;;;;;;12.90;47.43;95207.31;4988920;28;20276;-71
2022/09/23 09:14:54;;;;;;;4.38;2.92;;;;;;;12.97;47.48;95213.59;4984226;28;20274;-70
2022/09/23 09:17:47;;;;;;;3.28;3.08;;;;;;;13.07;47.06;95219.56;4984778;28;20259;-71
2022/09/23 09:20:38;;;;;;;3.47;3.22;;;;;;;13.22;46.93;95217.09;4986457;28;20334;-71
2022/09/23 09:23:21;;;;;;;3.47;3.28;;;;;;;13.31;46.85;95217.97;5018470;28;20224;-69
2022/09/23 09:25:54;;;;;;;3.10;2.83;;;;;;;13.16;45.97;95218.56;4987079;28;20231;-70
2022/09/23 09:28:36;;;;;;;3.10;2.90;;;;;;;13.33;45.37;95224.72;4985179;28;20227;-71
2022/09/23 09:31:20;;;;;;;2.90;2.70;;;;;;;13.23;44.38;95208.19;4986680;28;20588;-70
2022/09/23 09:33:57;;;;;;;3.75;3.45;;;;;;;13.55;45.18;95214.50;4977892;28;20335;-70
2022/09/23 09:36:34;;;;;;;3.13;2.92;;;;;;;13.88;44.39;95213.50;4966139;28;20219;-70
2022/09/23 09:39:01;;;;;;;3.25;2.97;;;;;;;13.88;44.90;95213.50;4986574;28;20219;-70
2022/09/23 09:41:30;;;;;;;7.25;3.85;;;;;;;14.08;44.29;95219.25;4985494;28;20205;-72
2022/09/23 09:43:58;;;;;;;4.85;3.00;;;;;;;14.21;44.10;95220.56;4984765;28;20255;-71
2022/09/23 09:46:51;;;;;;;3.45;3.15;;;;;;;14.37;43.19;95222.34;5013153;28;20255;-72
2022/09/23 09:49:36;;;;;;;4.32;2.85;;;;;;;14.70;42.45;95228.34;4986889;28;20223;-72
2022/09/23 09:52:21;;;;;;;3.22;2.92;;;;;;;14.56;41.73;95219.31;4952784;28;20383;-72
2022/09/23 09:54:48;;;;;;;2.40;2.30;;;;;;;14.53;41.17;95227.59;4951901;28;20303;-71
2022/09/23 09:57:35;;;;;;;3.05;2.78;;;;;;;14.66;41.42;95208.53;4930858;28;20291;-72
2022/09/23 10:00:21;;;;;;;2.50;2.30;;;;;;;14.72;40.76;95205.19;4935939;28;20208;-72
2022/09/23 10:03:12;;;;;;;2.90;2.63;;;;;;;14.86;40.91;95204.47;4880019;29;20581;-71
2022/09/23 10:05:44;;;;;;;2.35;2.00;;;;;;;15.09;40.28;95199.19;4897432;29;20264;-71
2022/09/23 10:08:35;;;;;;;2.33;2.13;;;;;;;15.24;39.49;95201.13;4897316;29;20235;-72
2022/09/23 10:11:05;;;;;;;2.45;2.25;;;;;;;15.31;39.05;95205.50;4897712;29;20778;-72
2022/09/23 10:13:31;;;;;;;3.50;2.10;;;;;;;15.37;38.58;95199.53;4897237;29;20298;-71
2022/09/23 10:15:59;;;;;;;2.35;1.92;;;;;;;15.62;38.32;95194.03;4893081;29;20235;-71
2022/09/23 10:18:33;;;;;;;3.53;2.00;;;;;;;15.69;37.73;95192.34;4894887;29;20253;-71
2022/09/23 10:21:08;;;;;;;2.15;2.05;;;;;;;15.64;37.17;95192.03;4895869;29;20376;-71
2022/09/23 10:23:39;;;;;;;2.30;2.10;;;;;;;15.81;37.51;95192.72;4899215;29;20226;-72
2022/09/23 10:26:07;;;;;;;2.40;2.20;;;;;;;16.02;37.29;95190.22;4891160;29;20337;-73
2022/09/23 10:28:52;;;;;;;2.70;2.50;;;;;;;16.06;38.10;95188.00;4899974;29;20230;-71
2022/09/23 10:31:26;;;;;;;2.05;1.95;;;;;;;16.02;36.80;95190.22;4878739;29;20299;-71
2022/09/23 10:33:59;;;;;;;2.70;2.50;;;;;;;15.93;37.38;95188.66;4883141;29;20251;-70
2022/09/23 10:36:28;;;;;;;1.98;1.88;;;;;;;15.99;35.97;95184.44;4872595;29;20801;-70
2022/09/23 10:48:03;;;;;;;3.08;2.20;;;;;;;16.81;35.16;95173.72;4981477;28;20303;-71
2022/09/23 10:50:45;;;;;;;3.63;2.00;;;;;;;17.05;34.55;95172.56;4980041;28;20226;-71
2022/09/23 10:53:18;;;;;;;5.68;2.72;;;;;;;17.26;33.94;95173.59;5011726;28;20334;-72
2022/09/23 10:55:53;;;;;;;3.45;2.38;;;;;;;17.37;34.50;95181.06;4980222;28;20298;-70
2022/09/23 10:58:25;;;;;;;2.97;2.05;;;;;;;17.28;33.73;95176.91;4971830;28;20513;-71
2022/09/23 11:01:04;;;;;;;2.80;2.50;;;;;;;17.23;33.20;95176.66;4976316;28;20225;-72
2022/09/23 11:03:35;;;;;;;2.22;2.13;;;;;;;17.44;32.33;95167.84;4967332;28;20230;-71
2022/09/23 11:06:19;;;;;;;2.10;2.00;;;;;;;17.94;31.84;95174.84;4978832;28;20220;-70
2022/09/23 11:09:02;;;;;;;2.75;2.00;;;;;;;17.72;32.42;95162.56;4973645;28;20251;-72
2022/09/23 11:11:43;;;;;;;3.10;2.28;;;;;;;17.68;32.64;95156.00;4981785;28;20258;-70
2022/09/23 11:14:26;;;;;;;2.70;2.00;;;;;;;17.85;32.24;95162.69;4984189;28;20277;-69
2022/09/23 11:17:13;;;;;;;2.00;1.90;;;;;;;17.62;31.47;95160.25;4974358;28;20248;-72
2022/09/23 11:20:10;;;;;;;1.75;1.65;;;;;;;17.58;31.61;95145.69;4980728;28;20585;-69
2022/09/23 11:22:55;;;;;;;2.50;1.95;;;;;;;17.50;30.76;95151.94;5009764;28;20220;-71
2022/09/23 11:25:45;;;;;;;2.38;1.77;;;;;;;17.76;30.57;95145.22;4981027;28;20254;-72
2022/09/23 11:28:34;;;;;;;1.40;1.30;;;;;;;18.29;29.70;95130.44;5010330;28;20227;-69
2022/09/23 11:31:09;;;;;;;1.70;1.60;;;;;;;18.22;29.21;95147.41;4926449;28;20220;-72
2022/09/23 11:33:49;;;;;;;2.35;1.45;;;;;;;17.84;28.58;95143.25;4933741;28;20231;-70
2022/09/23 11:36:31;;;;;;;2.08;1.42;;;;;;;18.19;27.92;95131.81;4953282;28;20223;-70
2022/09/23 11:39:01;;;;;;;2.60;1.80;;;;;;;18.37;27.97;95124.16;4968281;28;20203;-71
2022/09/23 11:41:30;;;;;;;1.90;1.40;;;;;;;18.49;27.62;95129.72;4948455;28;20258;-72
2022/09/23 11:44:19;;;;;;;1.90;1.80;;;;;;;18.12;28.16;95136.28;4950500;28;20291;-71
2022/09/23 11:47:07;;;;;;;1.77;1.67;;;;;;;18.06;28.31;95130.72;4951992;28;20232;-72
2022/09/23 11:49:53;;;;;;;2.25;1.25;;;;;;;18.06;27.36;95136.03;4954252;28;20227;-70
2022/09/23 11:52:28;;;;;;;2.42;1.80;;;;;;;18.18;27.54;95135.53;4967581;28;20253;-70
2022/09/23 11:55:04;;;;;;;1.70;1.60;;;;;;;18.50;27.79;95113.56;4952473;28;20592;-73
2022/09/23 11:57:39;;;;;;;1.40;1.30;;;;;;;18.61;27.71;95114.84;4956418;28;20227;-71
2022/09/23 12:00:18;;;;;;;1.50;1.40;;;;;;;18.72;27.76;95111.59;4966166;28;20284;-70
2022/09/23 12:03:08;;;;;;;1.50;1.40;;;;;;;18.90;27.46;95108.41;4965055;28;20244;-72
2022/09/23 12:05:40;;;;;;;1.65;1.55;;;;;;;18.85;27.56;95110.03;4948552;28;22088;-70
2022/09/23 12:08:25;;;;;;;1.60;1.50;;;;;;;18.94;26.29;95116.81;4964429;28;20240;-69
2022/09/23 12:11:05;;;;;;;2.47;1.92;;;;;;;19.06;25.65;95109.03;4981550;28;20226;-71
2022/09/23 12:13:59;;;;;;;0.93;0.93;;;;;;;19.32;25.41;95110.94;5011987;28;20749;-70